createdAt,value
2023-03-26T00:01:46.718Z,1.23
2023-03-26T00:05:48.972Z,1.35
2023-03-26T00:09:50.453Z,2.03
2023-03-26T00:13:53.730Z,1.17
2023-03-26T00:17:56.150Z,2.05
2023-03-26T00:21:57.999Z,1.75
2023-03-26T00:26:00.776Z,1.38
2023-03-26T00:30:03.788Z,1.70
2023-03-26T00:34:05.782Z,2.08
2023-03-26T00:38:07.784Z,2.00
2023-03-26T00:42:14.868Z,1.70
2023-03-26T00:46:17.928Z,1.52
2023-03-26T00:50:19.424Z,1.40
2023-03-26T00:54:20.966Z,2.10
2023-03-26T00:58:22.438Z,1.42
2023-03-26T01:02:25.129Z,1.80
2023-03-26T01:06:32.868Z,1.60
2023-03-26T01:10:38.618Z,2.00
2023-03-26T01:14:40.298Z,1.00
2023-03-26T01:18:41.866Z,1.30
2023-03-26T01:22:49.322Z,1.85
2023-03-26T01:26:54.003Z,2.25
2023-03-26T01:31:07.041Z,1.52
2023-03-26T01:35:30.399Z,1.63
2023-03-26T01:39:53.195Z,1.65
2023-03-26T01:44:03.803Z,2.25
2023-03-26T01:48:07.065Z,1.90
2023-03-26T01:52:26.579Z,2.47
2023-03-26T01:57:09.473Z,2.50
2023-03-26T02:01:17.100Z,2.88
2023-03-26T02:05:33.911Z,2.95
2023-03-26T02:09:45.855Z,2.90
2023-03-26T02:13:47.591Z,3.00
2023-03-26T02:17:49.653Z,1.50
2023-03-26T02:21:51.380Z,1.33
2023-03-26T02:25:53.275Z,0.98
2023-03-26T02:29:54.882Z,1.25
2023-03-26T02:33:57.418Z,1.60
2023-03-26T02:37:58.876Z,1.83
2023-03-26T02:42:00.408Z,1.60
2023-03-26T02:46:01.932Z,3.05
2023-03-26T02:50:04.533Z,2.67
2023-03-26T02:54:06.997Z,1.55
2023-03-26T02:58:08.545Z,2.08
2023-03-26T03:02:10.240Z,1.85
2023-03-26T03:06:11.709Z,1.20
2023-03-26T03:10:15.442Z,0.93
2023-03-26T03:14:16.850Z,1.40
2023-03-26T03:18:18.409Z,1.75
2023-03-26T03:22:20.243Z,1.40
2023-03-26T03:26:27.490Z,2.10
2023-03-26T03:30:29.009Z,2.35
2023-03-26T03:34:30.720Z,2.35
2023-03-26T03:38:32.194Z,2.55
2023-03-26T03:42:33.896Z,1.75
2023-03-26T03:46:35.927Z,2.00
2023-03-26T03:50:37.460Z,2.38
2023-03-26T03:54:38.976Z,1.45
2023-03-26T03:58:41.046Z,2.13
2023-03-26T04:02:43.007Z,2.28
2023-03-26T04:06:44.764Z,2.33
2023-03-26T04:10:46.528Z,1.40
2023-03-26T04:14:48.637Z,1.70
2023-03-26T04:18:50.116Z,1.77
2023-03-26T04:22:52.726Z,1.98
2023-03-26T04:26:58.061Z,2.20
2023-03-26T04:31:03.636Z,1.80
2023-03-26T04:35:06.699Z,1.35
2023-03-26T04:39:11.568Z,1.63
2023-03-26T04:43:17.961Z,2.25
2023-03-26T04:47:19.542Z,1.85
2023-03-26T04:51:25.695Z,1.42
2023-03-26T04:55:33.923Z,2.10
2023-03-26T04:59:35.997Z,2.17
2023-03-26T05:03:39.532Z,1.60
2023-03-26T05:07:42.240Z,1.50
2023-03-26T05:11:43.706Z,1.08
2023-03-26T05:15:45.285Z,2.30
2023-03-26T05:19:47.687Z,1.90
2023-03-26T05:23:49.170Z,1.60
2023-03-26T05:27:50.652Z,1.50
2023-03-26T05:31:52.106Z,1.63
2023-03-26T05:36:07.883Z,1.77
2023-03-26T05:40:12.004Z,2.30
2023-03-26T05:44:13.480Z,2.17
2023-03-26T05:48:14.892Z,2.17
2023-03-26T05:52:18.971Z,2.20
2023-03-26T05:56:20.617Z,2.03
2023-03-26T06:00:22.077Z,2.22
2023-03-26T06:04:23.658Z,2.78
2023-03-26T06:08:25.753Z,2.25
2023-03-26T06:12:27.191Z,1.85
2023-03-26T06:16:28.810Z,2.10
2023-03-26T06:20:30.285Z,1.73
2023-03-26T06:24:32.496Z,1.88
2023-03-26T06:28:35.260Z,1.60
2023-03-26T06:32:36.749Z,2.03
2023-03-26T06:36:38.253Z,1.80
2023-03-26T06:40:39.898Z,1.58
2023-03-26T06:44:41.336Z,1.83
2023-03-26T06:48:42.998Z,1.45
2023-03-26T06:52:44.702Z,0.75
2023-03-26T06:56:46.169Z,1.33
2023-03-26T07:00:48.125Z,1.80
2023-03-26T07:04:49.613Z,1.60
2023-03-26T07:08:51.114Z,1.40
2023-03-26T07:12:53.293Z,1.27
2023-03-26T07:16:54.776Z,1.02
2023-03-26T07:20:56.814Z,1.55
2023-03-26T07:24:59.862Z,0.88
2023-03-26T07:29:13.299Z,0.98
2023-03-26T07:33:23.738Z,1.40
2023-03-26T07:37:57.485Z,1.38
2023-03-26T07:42:30.168Z,0.90
2023-03-26T07:46:37.024Z,1.35
2023-03-26T07:50:38.751Z,1.00
2023-03-26T07:54:40.506Z,1.25
2023-03-26T07:58:48.039Z,1.02
2023-03-26T08:03:30.970Z,1.75
2023-03-26T08:07:35.642Z,1.38
2023-03-26T08:12:07.660Z,1.30
2023-03-26T08:16:23.117Z,2.03
2023-03-26T08:20:45.610Z,1.70
2023-03-26T08:25:17.714Z,1.77
2023-03-26T08:29:41.230Z,2.17
2023-03-26T08:33:43.518Z,1.75
2023-03-26T08:37:45.304Z,1.70
2023-03-26T08:42:08.198Z,1.38
2023-03-26T08:46:27.503Z,1.75
2023-03-26T08:50:50.835Z,1.65
2023-03-26T08:54:57.167Z,1.45
2023-03-26T08:59:20.379Z,1.58
2023-03-26T09:03:37.038Z,1.40
2023-03-26T09:07:54.241Z,2.13
2023-03-26T09:12:07.911Z,1.50
2023-03-26T09:16:21.598Z,1.50
2023-03-26T09:21:16.978Z,2.20
2023-03-26T09:25:41.640Z,1.55
2023-03-26T09:30:17.548Z,1.38
2023-03-26T09:34:18.926Z,1.48
2023-03-26T09:38:32.267Z,1.10
2023-03-26T09:42:39.402Z,1.08
2023-03-26T09:47:11.862Z,1.30
2023-03-26T09:51:16.826Z,1.50
2023-03-26T09:55:32.168Z,1.15
2023-03-26T10:00:09.760Z,1.52
2023-03-26T10:04:33.165Z,0.93
2023-03-26T10:09:01.312Z,1.55
2023-03-26T10:13:17.483Z,1.45
2023-03-26T10:17:43.764Z,1.30
2023-03-26T10:21:59.712Z,1.38
2023-03-26T10:26:20.605Z,1.80
2023-03-26T10:30:29.127Z,1.20
2023-03-26T10:34:45.857Z,1.65
2023-03-26T10:39:38.202Z,1.85
2023-03-26T10:44:09.010Z,1.60
2023-03-26T10:48:15.553Z,1.70
2023-03-26T10:52:22.427Z,1.90
2023-03-26T10:56:32.375Z,1.13
2023-03-26T11:00:42.700Z,1.10
2023-03-26T11:04:53.576Z,0.80
2023-03-26T11:09:22.721Z,1.15
2023-03-26T11:14:00.986Z,1.10
2023-03-26T11:18:36.400Z,1.50
2023-03-26T11:23:15.265Z,1.20
2023-03-26T11:27:25.031Z,1.60
2023-03-26T11:31:49.588Z,1.00
2023-03-26T11:35:55.424Z,1.23
2023-03-26T11:39:58.642Z,1.08
2023-03-26T11:44:14.017Z,1.35
2023-03-26T11:48:23.382Z,0.85
2023-03-26T11:52:26.699Z,1.00
2023-03-26T11:56:32.130Z,0.98
2023-03-26T12:00:34.486Z,1.15
2023-03-26T12:04:37.807Z,1.05
2023-03-26T12:08:39.811Z,1.30
2023-03-26T12:12:44.703Z,1.40
2023-03-26T12:17:08.747Z,1.70
2023-03-26T12:21:16.138Z,1.55
2023-03-26T12:25:25.816Z,1.33
2023-03-26T12:29:28.632Z,1.42
2023-03-26T12:33:35.289Z,1.20
2023-03-26T12:37:40.715Z,1.02
2023-03-26T12:44:46.829Z,1.10
2023-03-26T12:46:58.885Z,1.02
2023-03-26T12:50:35.719Z,1.00
2023-03-26T12:54:54.006Z,0.93
2023-03-26T12:58:58.485Z,1.13
2023-03-26T13:03:21.273Z,0.80
2023-03-26T13:07:47.131Z,1.30
2023-03-26T13:12:10.948Z,0.70
2023-03-26T13:16:35.260Z,0.93
2023-03-26T13:20:51.366Z,0.73
2023-03-26T13:25:17.506Z,0.93
2023-03-26T13:29:41.394Z,1.25
2023-03-26T13:34:08.359Z,0.90
2023-03-26T13:38:42.276Z,1.02
2023-03-26T13:43:24.685Z,0.82
2023-03-26T13:47:30.857Z,0.80
2023-03-26T13:51:44.763Z,0.90
2023-03-26T13:55:51.638Z,1.02
2023-03-26T13:59:58.324Z,0.90
2023-03-26T14:04:06.577Z,1.20
2023-03-26T14:08:28.027Z,0.90
2023-03-26T14:12:37.681Z,1.52
2023-03-26T14:21:04.132Z,1.27
2023-03-26T14:25:25.084Z,1.15
2023-03-26T14:30:07.044Z,1.17
2023-03-26T14:34:16.879Z,1.50
2023-03-26T14:38:21.379Z,1.30
2023-03-26T14:42:43.187Z,1.15
2023-03-26T14:47:04.543Z,1.42
2023-03-26T14:51:19.276Z,1.27
2023-03-26T14:56:04.020Z,1.23
2023-03-26T15:00:33.485Z,1.05
2023-03-26T15:04:55.682Z,1.55
2023-03-26T15:09:13.752Z,1.40
2023-03-26T15:13:38.450Z,1.40
2023-03-26T15:18:06.216Z,1.30
2023-03-26T15:22:41.449Z,1.92
2023-03-26T15:26:49.620Z,1.30
2023-03-26T15:31:06.548Z,1.40
2023-03-26T15:35:31.803Z,1.00
2023-03-26T15:40:09.726Z,1.33
2023-03-26T15:44:28.465Z,1.45
2023-03-26T15:48:40.977Z,1.17
2023-03-26T15:53:04.381Z,1.30
2023-03-26T15:57:36.244Z,1.85
2023-03-26T16:02:02.894Z,1.80
2023-03-26T16:06:14.080Z,1.60
2023-03-26T16:10:33.823Z,1.33
2023-03-26T16:14:35.795Z,1.60
2023-03-26T16:18:40.923Z,2.10
2023-03-26T16:23:01.694Z,1.60
2023-03-26T16:27:27.769Z,2.60
2023-03-26T16:31:38.803Z,1.30
2023-03-26T16:36:06.479Z,1.35
2023-03-26T16:40:26.184Z,1.48
2023-03-26T16:44:57.343Z,1.65
2023-03-26T16:49:11.359Z,1.50
2023-03-26T16:53:23.303Z,1.75
2023-03-26T16:57:28.259Z,2.13
2023-03-26T17:01:41.510Z,2.78
2023-03-26T17:05:58.169Z,1.50
2023-03-26T17:10:15.781Z,1.67
2023-03-26T17:14:31.363Z,1.45
2023-03-26T17:18:41.693Z,1.70
2023-03-26T17:22:51.867Z,1.45
2023-03-26T17:27:37.476Z,1.95
2023-03-26T17:31:58.535Z,1.33
2023-03-26T17:36:12.011Z,1.50
2023-03-26T17:40:31.268Z,2.45
2023-03-26T17:44:35.779Z,2.03
2023-03-26T17:48:41.827Z,1.60
2023-03-26T17:53:22.952Z,2.00
2023-03-26T18:01:46.118Z,1.40
2023-03-26T18:05:49.049Z,2.05
2023-03-26T18:10:02.697Z,1.40
2023-03-26T18:14:41.848Z,1.65
2023-03-26T18:18:54.248Z,2.08
2023-03-26T18:22:55.870Z,2.22
2023-03-26T18:27:03.304Z,1.95
2023-03-26T18:31:17.081Z,1.50
2023-03-26T18:35:21.252Z,1.88
2023-03-26T18:39:22.954Z,2.20
2023-03-26T18:43:34.396Z,2.90
2023-03-26T18:47:38.584Z,2.47
2023-03-26T18:51:54.122Z,2.03
2023-03-26T18:55:58.639Z,2.10
2023-03-26T19:00:18.580Z,3.00
2023-03-26T19:04:20.133Z,2.50
2023-03-26T19:08:23.763Z,1.98
2023-03-26T19:12:32.880Z,2.13
2023-03-26T19:16:37.044Z,2.28
2023-03-26T19:20:44.683Z,1.65
2023-03-26T19:24:47.279Z,2.42
2023-03-26T19:28:53.444Z,2.17
2023-03-26T19:32:55.795Z,2.28
2023-03-26T19:37:26.406Z,2.78
2023-03-26T19:41:46.509Z,2.20
2023-03-26T19:45:59.701Z,2.42
2023-03-26T19:50:25.837Z,2.42
2023-03-26T19:54:27.318Z,2.67
2023-03-26T19:58:29.782Z,2.08
2023-03-26T20:02:31.649Z,3.58
2023-03-26T20:06:43.755Z,2.25
2023-03-26T20:10:46.454Z,2.70
2023-03-26T20:14:48.771Z,3.00
2023-03-26T20:18:54.054Z,2.70
2023-03-26T20:22:55.727Z,2.40
2023-03-26T20:26:57.220Z,2.10
2023-03-26T20:30:59.268Z,2.47
2023-03-26T20:35:02.286Z,3.25
2023-03-26T20:39:07.654Z,2.63
2023-03-26T20:43:12.564Z,2.70
2023-03-26T20:47:14.195Z,3.03
2023-03-26T20:51:16.026Z,2.88
2023-03-26T20:55:21.769Z,3.05
2023-03-26T20:59:26.663Z,3.35
2023-03-26T21:03:28.633Z,2.60
2023-03-26T21:07:30.136Z,2.72
2023-03-26T21:11:57.101Z,3.05
2023-03-26T21:16:00.518Z,2.75
2023-03-26T21:20:13.184Z,3.10
2023-03-26T21:24:32.941Z,2.20
2023-03-26T21:28:42.579Z,2.05
2023-03-26T21:32:45.531Z,2.22
2023-03-26T21:36:47.443Z,2.13
2023-03-26T21:40:58.433Z,2.72
2023-03-26T21:45:00.846Z,1.83
2023-03-26T21:49:02.685Z,2.03
2023-03-26T21:53:04.822Z,1.90
2023-03-26T21:57:18.518Z,2.05
2023-03-26T22:01:38.118Z,2.13
2023-03-26T22:05:51.660Z,2.07
2023-03-26T22:09:53.541Z,1.77
2023-03-26T22:13:56.807Z,2.03
2023-03-26T22:18:03.181Z,2.05
2023-03-26T22:22:05.294Z,2.38
2023-03-26T22:26:07.184Z,2.10
2023-03-26T22:30:09.534Z,2.00
2023-03-26T22:34:11.596Z,2.13
2023-03-26T22:38:13.294Z,2.40
2023-03-26T22:42:15.730Z,2.50
2023-03-26T22:46:17.455Z,1.75
2023-03-26T22:50:19.163Z,3.05
2023-03-26T22:54:20.825Z,2.30
2023-03-26T22:58:22.729Z,2.60
2023-03-26T23:02:24.328Z,2.30
2023-03-26T23:06:26.302Z,2.63
2023-03-26T23:10:30.085Z,2.00
2023-03-26T23:14:34.883Z,2.78
2023-03-26T23:18:36.831Z,2.15
2023-03-26T23:22:38.385Z,1.90
2023-03-26T23:26:49.520Z,1.95
2023-03-26T23:30:56.255Z,1.77
2023-03-26T23:34:57.917Z,2.00
2023-03-26T23:39:01.558Z,1.98
2023-03-26T23:43:03.031Z,1.88
2023-03-26T23:47:09.748Z,1.27
2023-03-26T23:51:12.169Z,1.63
2023-03-26T23:55:13.725Z,1.38
2023-03-26T23:59:17.495Z,2.20
